Startpagina
METAR-TAF:

METAR-TAF

Vliegvelden :

Rzeszów, Polen

breedte: 50-06N, lengte: 022-03E, hoogte: 200 m

Actueel weer

Dit bericht is 26 minuten geleden gemaakt, om 20:00 UTC
Wind 5 kt uit het oostnoordoosten
Temperatuur 23°C
Vochtigheid 73%
Druk 1010 hPa
Zicht 10 km of meer
geen wolken onder 1500 m en geen cumulonimbus

METAR: EPRZ 212000Z 07005KT CAVOK 23/18 Q1010

Tijdstip: 22:26 (20:26 UTC)

Verwachting

Dit bericht is 2 uur en het 56 minuten geleden gemaakt, om 17:30 UTC
Verwachting geldig van 21 om 18 UTC tot 22 om 18 UTC
Wind 9 kt uit het oostzuidoosten
Zicht 10 km of meer
geen wolken onder 1500 m en geen cumulonimbus
Tijdelijke
van 22 om 14 UTC tot 22 om 18 UTC
Wind 18 kt uit variabele richting met uitschieters tot 38 kt
Zicht: 4000 m
Gebroken wolken op 4000 ft, Cumulonimbus.
onweer, regen, hagel

TAF: EPRZ 211730Z 2118/2218 11009KT CAVOK TEMPO 2214/2218 VRB18G38KT 4000 TSRAGR BKN040CB

Waarnemingen en weersverwachtingen van meer dan 4000 vliegvelden (METAR en TAF).

De beschikbare stations zijn de gele en rode punten op de kaart.

Ga met uw muis naar het station om de naam te zien.

Klik dan om waarnemingen en weersverwachtingen te zien.

kaart wijzigen: klik op de groene knoppen met een zwart kruis om in te zoomen, op de groene knop met een streepje om uit te zoomen of op de groene pijlen voor aangrenzende kaarten.


METAR-TAF: